createdAt,value
2023-04-01T00:00:58.179Z,100.00
2023-04-01T00:03:27.807Z,100.00
2023-04-01T00:05:57.251Z,100.00
2023-04-01T00:08:25.660Z,100.00
2023-04-01T00:10:54.189Z,100.00
2023-04-01T00:13:23.964Z,100.00
2023-04-01T00:15:52.249Z,100.00
2023-04-01T00:18:20.934Z,100.00
2023-04-01T00:20:50.864Z,100.00
2023-04-01T00:23:19.918Z,100.00
2023-04-01T00:25:49.384Z,100.00
2023-04-01T00:28:18.119Z,100.00
2023-04-01T00:30:48.119Z,100.00
2023-04-01T00:33:16.499Z,100.00
2023-04-01T00:35:45.646Z,100.00
2023-04-01T00:38:14.187Z,100.00
2023-04-01T00:40:44.121Z,100.00
2023-04-01T00:43:14.369Z,100.00
2023-04-01T00:45:44.551Z,100.00
2023-04-01T00:48:17.042Z,100.00
2023-04-01T00:50:49.906Z,100.00
2023-04-01T00:53:19.601Z,100.00
2023-04-01T00:55:52.050Z,100.00
2023-04-01T00:58:24.125Z,100.00
2023-04-01T01:00:53.082Z,100.00
2023-04-01T01:03:22.752Z,100.00
2023-04-01T01:06:10.786Z,100.00
2023-04-01T01:08:52.776Z,100.00
2023-04-01T01:11:27.964Z,100.00
2023-04-01T01:14:01.526Z,100.00
2023-04-01T01:16:31.720Z,100.00
2023-04-01T01:19:08.551Z,100.00
2023-04-01T01:21:56.783Z,100.00
2023-04-01T01:24:32.493Z,100.00
2023-04-01T01:27:06.410Z,100.00
2023-04-01T01:29:43.651Z,100.00
2023-04-01T01:32:19.843Z,100.00
2023-04-01T01:34:53.493Z,100.00
2023-04-01T01:37:26.195Z,100.00
2023-04-01T01:39:57.398Z,100.00
2023-04-01T01:42:27.453Z,100.00
2023-04-01T01:44:57.312Z,100.00
2023-04-01T01:47:27.435Z,100.00
2023-04-01T01:49:56.994Z,100.00
2023-04-01T01:52:26.834Z,100.00
2023-04-01T01:54:57.235Z,100.00
2023-04-01T01:57:28.549Z,100.00
2023-04-01T02:00:00.189Z,100.00
2023-04-01T02:02:32.287Z,100.00
2023-04-01T02:05:01.082Z,100.00
2023-04-01T02:07:34.235Z,100.00
2023-04-01T02:10:03.214Z,100.00
2023-04-01T02:12:32.208Z,100.00
2023-04-01T02:15:04.005Z,100.00
2023-04-01T02:17:32.556Z,100.00
2023-04-01T02:20:02.528Z,100.00
2023-04-01T02:22:34.467Z,100.00
2023-04-01T02:25:07.171Z,100.00
2023-04-01T02:27:35.821Z,100.00
2023-04-01T02:30:05.079Z,100.00
2023-04-01T02:32:34.673Z,100.00
2023-04-01T02:35:06.907Z,100.00
2023-04-01T02:37:37.981Z,100.00
2023-04-01T02:40:09.726Z,100.00
2023-04-01T02:42:37.995Z,100.00
2023-04-01T02:45:08.147Z,100.00
2023-04-01T02:47:36.447Z,100.00
2023-04-01T02:50:05.407Z,100.00
2023-04-01T02:52:34.438Z,100.00
2023-04-01T02:55:05.147Z,100.00
2023-04-01T02:57:33.614Z,100.00
2023-04-01T03:00:01.996Z,100.00
2023-04-01T03:02:30.526Z,100.00
2023-04-01T03:04:58.868Z,100.00
2023-04-01T03:07:27.154Z,100.00
2023-04-01T03:09:55.441Z,100.00
2023-04-01T03:12:25.074Z,100.00
2023-04-01T03:14:53.332Z,100.00
2023-04-01T03:17:21.674Z,100.00
2023-04-01T03:19:49.948Z,100.00
2023-04-01T03:22:20.014Z,100.00
2023-04-01T03:24:48.301Z,100.00
2023-04-01T03:27:16.917Z,100.00
2023-04-01T03:29:46.569Z,100.00
2023-04-01T03:32:14.888Z,100.00
2023-04-01T03:34:43.152Z,100.00
2023-04-01T03:37:11.498Z,100.00
2023-04-01T03:39:39.974Z,100.00
2023-04-01T03:42:08.560Z,100.00
2023-04-01T03:44:37.146Z,100.00
2023-04-01T03:47:06.818Z,100.00
2023-04-01T03:49:35.378Z,100.00
2023-04-01T03:52:03.750Z,100.00
2023-04-01T03:54:32.029Z,100.00
2023-04-01T03:57:00.468Z,100.00
2023-04-01T03:59:28.744Z,100.00
2023-04-01T04:01:56.996Z,100.00
2023-04-01T04:04:27.084Z,100.00
2023-04-01T04:06:55.879Z,100.00
2023-04-01T04:09:24.392Z,100.00
2023-04-01T04:11:52.751Z,100.00
2023-04-01T04:14:21.003Z,100.00
2023-04-01T04:16:49.386Z,100.00
2023-04-01T04:19:17.719Z,100.00
2023-04-01T04:21:47.374Z,100.00
2023-04-01T04:24:15.783Z,100.00
2023-04-01T04:26:44.190Z,100.00
2023-04-01T04:29:12.443Z,100.00
2023-04-01T04:31:40.843Z,100.00
2023-04-01T04:34:09.160Z,100.00
2023-04-01T04:36:37.468Z,100.00
2023-04-01T04:39:07.090Z,100.00
2023-04-01T04:41:37.545Z,100.00
2023-04-01T04:44:05.896Z,100.00
2023-04-01T04:46:34.221Z,100.00
2023-04-01T04:49:02.506Z,100.00
2023-04-01T04:51:31.067Z,100.00
2023-04-01T04:53:59.326Z,100.00
2023-04-01T04:56:29.068Z,100.00
2023-04-01T04:58:57.337Z,100.00
2023-04-01T05:01:26.357Z,100.00
2023-04-01T05:03:54.646Z,100.00
2023-04-01T05:06:23.635Z,100.00
2023-04-01T05:08:52.083Z,100.00
2023-04-01T05:11:22.111Z,100.00
2023-04-01T05:13:52.223Z,100.00
2023-04-01T05:16:22.064Z,100.00
2023-04-01T05:18:50.398Z,100.00
2023-04-01T05:21:18.666Z,100.00
2023-04-01T05:23:47.009Z,100.00
2023-04-01T05:26:16.445Z,100.00
2023-04-01T05:28:44.786Z,100.00
2023-04-01T05:31:14.541Z,100.00
2023-04-01T05:33:42.881Z,100.00
2023-04-01T05:36:12.812Z,100.00
2023-04-01T05:38:41.955Z,100.00
2023-04-01T05:41:10.307Z,100.00
2023-04-01T05:43:39.112Z,100.00
2023-04-01T05:46:07.783Z,100.00
2023-04-01T05:48:37.601Z,100.00
2023-04-01T05:51:06.715Z,100.00
2023-04-01T05:53:34.929Z,100.00
2023-04-01T05:56:06.624Z,100.00
2023-04-01T05:58:34.893Z,100.00
2023-04-01T06:01:10.269Z,100.00
2023-04-01T06:03:40.940Z,100.00
2023-04-01T06:06:16.544Z,100.00
2023-04-01T06:08:44.994Z,100.00
2023-04-01T06:11:24.705Z,100.00
2023-04-01T06:14:14.330Z,100.00
2023-04-01T06:16:54.073Z,100.00
2023-04-01T06:19:34.311Z,100.00
2023-04-01T06:22:24.604Z,100.00
2023-04-01T06:25:06.713Z,100.00
2023-04-01T06:27:49.677Z,100.00
2023-04-01T06:30:35.887Z,100.00
2023-04-01T06:33:36.463Z,100.00
2023-04-01T06:36:20.314Z,100.00
2023-04-01T06:39:00.377Z,100.00
2023-04-01T06:41:49.822Z,100.00
2023-04-01T06:44:21.293Z,100.00
2023-04-01T06:46:50.721Z,100.00
2023-04-01T06:49:36.069Z,100.00
2023-04-01T06:52:14.214Z,100.00
2023-04-01T06:54:44.941Z,100.00
2023-04-01T06:57:22.937Z,96.47
2023-04-01T06:59:51.320Z,99.49
2023-04-01T07:02:26.625Z,97.76
2023-04-01T07:04:56.853Z,96.14
2023-04-01T07:07:34.120Z,100.00
2023-04-01T07:10:05.286Z,100.00
2023-04-01T07:12:40.686Z,99.95
2023-04-01T07:15:18.365Z,100.00
2023-04-01T07:17:48.317Z,100.00
2023-04-01T07:20:21.672Z,100.00
2023-04-01T07:22:52.954Z,98.21
2023-04-01T07:25:26.447Z,95.89
2023-04-01T07:27:55.960Z,94.66
2023-04-01T07:30:26.067Z,93.42
2023-04-01T07:32:59.790Z,90.85
2023-04-01T07:35:33.813Z,91.75
2023-04-01T07:38:13.810Z,90.21
2023-04-01T07:40:49.607Z,88.01
2023-04-01T07:44:00.699Z,87.13
2023-04-01T07:46:47.730Z,86.86
2023-04-01T07:49:19.829Z,87.79
2023-04-01T07:51:54.499Z,89.08
2023-04-01T07:54:28.774Z,88.49
2023-04-01T07:57:01.359Z,86.80
2023-04-01T07:59:36.031Z,78.88
2023-04-01T08:02:11.284Z,82.58
2023-04-01T08:04:51.641Z,91.59
2023-04-01T08:07:22.732Z,86.28
2023-04-01T08:09:58.106Z,84.09
2023-04-01T08:12:36.636Z,81.53
2023-04-01T08:15:13.461Z,80.09
2023-04-01T08:17:49.422Z,86.23
2023-04-01T08:20:28.682Z,80.04
2023-04-01T08:23:04.003Z,79.73
2023-04-01T08:25:35.012Z,77.94
2023-04-01T08:28:12.913Z,85.22
2023-04-01T08:30:45.545Z,71.36
2023-04-01T08:33:19.477Z,82.89
2023-04-01T08:35:51.345Z,76.03
2023-04-01T08:38:22.902Z,76.26
2023-04-01T08:41:01.374Z,77.10
2023-04-01T08:44:00.988Z,77.00
2023-04-01T08:47:05.039Z,69.82
2023-04-01T08:50:03.925Z,74.31
2023-04-01T08:52:37.386Z,78.37
2023-04-01T08:55:33.889Z,78.04
2023-04-01T08:58:34.670Z,80.51
2023-04-01T09:01:13.703Z,73.29
2023-04-01T09:03:59.528Z,73.15
2023-04-01T09:06:32.046Z,76.72
2023-04-01T09:09:12.032Z,69.68
2023-04-01T09:11:53.609Z,74.15
2023-04-01T09:14:42.463Z,73.35
2023-04-01T09:17:32.647Z,70.43
2023-04-01T09:20:16.423Z,71.48
2023-04-01T09:22:53.493Z,63.04
2023-04-01T09:25:31.870Z,69.82
2023-04-01T09:28:07.676Z,64.51
2023-04-01T09:30:48.484Z,63.13
2023-04-01T09:33:45.934Z,65.44
2023-04-01T09:36:21.571Z,62.46
2023-04-01T09:38:58.394Z,63.63
2023-04-01T09:41:31.875Z,68.82
2023-04-01T09:44:04.764Z,63.03
2023-04-01T09:46:45.106Z,59.45
2023-04-01T09:49:37.365Z,58.96
2023-04-01T09:52:16.345Z,56.72
2023-04-01T09:54:55.275Z,56.68
2023-04-01T09:57:50.316Z,57.64
2023-04-01T10:00:50.187Z,58.50
2023-04-01T10:03:45.977Z,60.16
2023-04-01T10:06:35.263Z,64.02
2023-04-01T10:09:35.623Z,62.89
2023-04-01T10:12:42.084Z,65.69
2023-04-01T10:15:32.213Z,60.40
2023-04-01T10:18:29.738Z,62.34
2023-04-01T10:21:21.973Z,63.62
2023-04-01T10:24:23.731Z,61.80
2023-04-01T10:27:18.712Z,62.85
2023-04-01T10:30:08.698Z,57.68
2023-04-01T10:33:16.756Z,57.01
2023-04-01T10:36:29.734Z,61.09
2023-04-01T10:39:25.800Z,56.83
2023-04-01T10:42:22.944Z,59.50
2023-04-01T10:45:46.763Z,60.34
2023-04-01T10:48:21.638Z,63.50
2023-04-01T10:51:18.393Z,63.45
2023-04-01T10:54:11.433Z,55.77
2023-04-01T10:56:46.332Z,67.79
2023-04-01T10:59:44.402Z,72.21
2023-04-01T11:02:49.701Z,74.12
2023-04-01T11:05:35.108Z,75.49
2023-04-01T11:08:35.545Z,79.93
2023-04-01T11:11:27.478Z,85.31
2023-04-01T11:14:20.979Z,81.88
2023-04-01T11:17:14.903Z,83.07
2023-04-01T11:19:58.456Z,89.82
2023-04-01T11:22:42.590Z,92.26
2023-04-01T11:25:36.943Z,85.57
2023-04-01T11:28:25.072Z,80.31
2023-04-01T11:31:06.239Z,82.62
2023-04-01T11:33:38.151Z,81.86
2023-04-01T11:36:12.268Z,75.41
2023-04-01T11:39:03.174Z,74.68
2023-04-01T11:41:39.303Z,79.47
2023-04-01T11:44:17.406Z,82.19
2023-04-01T11:46:55.120Z,84.00
2023-04-01T11:49:35.593Z,98.20
2023-04-01T11:52:17.691Z,100.00
2023-04-01T11:55:08.866Z,100.00
2023-04-01T11:57:51.692Z,100.00
2023-04-01T12:00:44.773Z,100.00
2023-04-01T12:03:24.304Z,100.00
2023-04-01T12:05:56.453Z,100.00
2023-04-01T12:08:33.661Z,100.00
2023-04-01T12:11:06.084Z,100.00
2023-04-01T12:13:42.089Z,100.00
2023-04-01T12:16:20.911Z,100.00
2023-04-01T12:18:53.007Z,100.00
2023-04-01T12:21:27.326Z,100.00
2023-04-01T12:24:28.266Z,100.00
2023-04-01T12:27:04.827Z,100.00
2023-04-01T12:29:50.576Z,100.00
2023-04-01T12:32:25.954Z,100.00
2023-04-01T12:35:12.877Z,100.00
2023-04-01T12:37:44.551Z,100.00
2023-04-01T12:40:40.348Z,100.00
2023-04-01T12:43:23.628Z,100.00
2023-04-01T12:45:57.474Z,100.00
2023-04-01T12:48:39.103Z,100.00
2023-04-01T12:51:31.966Z,100.00
2023-04-01T12:54:47.609Z,100.00
2023-04-01T12:57:32.368Z,100.00
2023-04-01T13:00:13.683Z,100.00
2023-04-01T13:02:53.576Z,100.00
2023-04-01T13:05:46.911Z,100.00
2023-04-01T13:08:33.050Z,100.00
2023-04-01T13:11:11.069Z,100.00
2023-04-01T13:14:24.979Z,100.00
2023-04-01T13:17:00.357Z,100.00
2023-04-01T13:19:35.593Z,100.00
2023-04-01T13:22:09.066Z,100.00
2023-04-01T13:24:45.884Z,100.00
2023-04-01T13:27:19.076Z,100.00
2023-04-01T13:30:04.997Z,100.00
2023-04-01T13:32:43.614Z,100.00
2023-04-01T13:35:21.022Z,100.00
2023-04-01T13:37:56.726Z,100.00
2023-04-01T13:40:38.289Z,100.00
2023-04-01T13:43:12.479Z,100.00
2023-04-01T13:45:49.309Z,100.00
2023-04-01T13:48:35.646Z,100.00
2023-04-01T13:51:40.374Z,100.00
2023-04-01T13:54:36.329Z,100.00
2023-04-01T13:57:20.535Z,100.00
2023-04-01T14:00:12.923Z,100.00
2023-04-01T14:02:55.882Z,100.00
2023-04-01T14:05:47.509Z,100.00
2023-04-01T14:08:26.571Z,100.00
2023-04-01T14:11:04.433Z,100.00
2023-04-01T14:13:36.956Z,100.00
2023-04-01T14:16:22.716Z,100.00
2023-04-01T14:19:05.828Z,100.00
2023-04-01T14:21:38.274Z,100.00
2023-04-01T14:24:47.041Z,100.00
2023-04-01T14:27:33.546Z,100.00
2023-04-01T14:30:17.433Z,100.00
2023-04-01T14:32:54.573Z,100.00
2023-04-01T14:35:34.188Z,100.00
2023-04-01T14:38:26.150Z,100.00
2023-04-01T14:40:59.047Z,100.00
2023-04-01T14:43:52.153Z,100.00
2023-04-01T14:46:37.250Z,100.00
2023-04-01T14:49:15.939Z,100.00
2023-04-01T14:51:44.490Z,100.00
2023-04-01T14:54:23.405Z,100.00
2023-04-01T14:56:54.304Z,100.00
2023-04-01T14:59:29.665Z,100.00
2023-04-01T15:02:03.737Z,100.00
2023-04-01T15:04:56.764Z,100.00
2023-04-01T15:08:03.041Z,100.00
2023-04-01T15:10:59.388Z,100.00
2023-04-01T15:13:42.768Z,100.00
2023-04-01T15:16:16.922Z,100.00
2023-04-01T15:18:54.785Z,100.00
2023-04-01T15:21:54.911Z,100.00
2023-04-01T15:24:25.229Z,100.00
2023-04-01T15:27:09.216Z,100.00
2023-04-01T15:29:54.211Z,100.00
2023-04-01T15:32:25.875Z,100.00
2023-04-01T15:34:59.393Z,100.00
2023-04-01T15:37:34.868Z,100.00
2023-04-01T15:40:16.779Z,100.00
2023-04-01T15:42:55.270Z,100.00
2023-04-01T15:45:36.920Z,100.00
2023-04-01T15:48:24.917Z,100.00
2023-04-01T15:51:10.008Z,100.00
2023-04-01T15:54:03.067Z,100.00
2023-04-01T15:56:42.231Z,100.00
2023-04-01T15:59:20.704Z,100.00
2023-04-01T16:01:56.100Z,100.00
2023-04-01T16:04:39.523Z,100.00
2023-04-01T16:07:13.188Z,100.00
2023-04-01T16:10:09.650Z,100.00
2023-04-01T16:12:49.436Z,100.00
2023-04-01T16:15:24.727Z,100.00
2023-04-01T16:18:11.075Z,100.00
2023-04-01T16:20:46.828Z,100.00
2023-04-01T16:23:20.729Z,100.00
2023-04-01T16:25:54.288Z,100.00
2023-04-01T16:28:26.814Z,100.00
2023-04-01T16:31:00.826Z,100.00
2023-04-01T16:33:40.327Z,100.00
2023-04-01T16:36:13.317Z,100.00
2023-04-01T16:38:45.394Z,100.00
2023-04-01T16:41:18.439Z,100.00
2023-04-01T16:43:49.379Z,100.00
2023-04-01T16:46:29.954Z,100.00
2023-04-01T16:49:06.437Z,100.00
2023-04-01T16:51:42.978Z,100.00
2023-04-01T16:54:16.424Z,99.50
2023-04-01T16:56:47.723Z,100.00
2023-04-01T16:59:22.174Z,100.00
2023-04-01T17:01:54.546Z,100.00
2023-04-01T17:04:32.976Z,100.00
2023-04-01T17:07:08.345Z,100.00
2023-04-01T17:09:48.213Z,100.00
2023-04-01T17:12:22.508Z,100.00
2023-04-01T17:14:57.335Z,100.00
2023-04-01T17:17:32.211Z,100.00
2023-04-01T17:20:28.925Z,95.60
2023-04-01T17:22:59.942Z,100.00
2023-04-01T17:25:47.236Z,98.99
2023-04-01T17:28:26.977Z,90.36
2023-04-01T17:31:00.863Z,86.21
2023-04-01T17:33:41.434Z,90.08
2023-04-01T17:36:19.239Z,97.16
2023-04-01T17:38:59.086Z,90.91
2023-04-01T17:41:33.549Z,88.95
2023-04-01T17:44:13.099Z,90.58
2023-04-01T17:46:51.462Z,90.00
2023-04-01T17:49:27.858Z,84.94
2023-04-01T17:52:02.864Z,87.10
2023-04-01T17:54:38.184Z,88.87
2023-04-01T17:57:25.518Z,85.05
2023-04-01T17:59:59.417Z,87.90
2023-04-01T18:02:33.330Z,81.47
2023-04-01T18:05:19.766Z,86.07
2023-04-01T18:07:59.201Z,82.05
2023-04-01T18:10:31.281Z,79.71
2023-04-01T18:13:16.700Z,75.20
2023-04-01T18:15:48.389Z,78.59
2023-04-01T18:18:42.872Z,76.29
2023-04-01T18:21:16.690Z,80.87
2023-04-01T18:24:01.684Z,78.34
2023-04-01T18:26:33.785Z,77.46
2023-04-01T18:29:06.574Z,77.12
2023-04-01T18:31:38.228Z,74.65
2023-04-01T18:34:10.037Z,71.30
2023-04-01T18:36:43.244Z,74.93
2023-04-01T18:39:18.020Z,75.58
2023-04-01T18:41:55.422Z,75.63
2023-04-01T18:44:37.436Z,76.48
2023-04-01T18:47:13.725Z,82.77
2023-04-01T18:49:46.807Z,80.41
2023-04-01T18:52:19.567Z,79.91
2023-04-01T18:54:58.177Z,84.07
2023-04-01T18:57:27.185Z,87.72
2023-04-01T18:59:57.718Z,82.03
2023-04-01T19:02:32.252Z,82.71
2023-04-01T19:05:05.115Z,81.09
2023-04-01T19:07:48.959Z,87.93
2023-04-01T19:10:25.556Z,82.56
2023-04-01T19:13:17.599Z,81.65
2023-04-01T19:15:49.197Z,84.41
2023-04-01T19:18:31.994Z,85.04
2023-04-01T19:21:04.119Z,76.48
2023-04-01T19:23:57.657Z,83.97
2023-04-01T19:26:29.482Z,88.11
2023-04-01T19:29:00.545Z,86.89
2023-04-01T19:31:41.254Z,85.52
2023-04-01T19:34:11.492Z,89.66
2023-04-01T19:36:47.440Z,86.48
2023-04-01T19:39:28.382Z,99.37
2023-04-01T19:42:02.353Z,96.05
2023-04-01T19:44:41.596Z,93.37
2023-04-01T19:47:17.198Z,93.89
2023-04-01T19:49:53.923Z,97.19
2023-04-01T19:52:28.634Z,93.84
2023-04-01T19:55:02.862Z,90.08
2023-04-01T19:57:43.009Z,96.96
2023-04-01T20:00:18.602Z,91.21
2023-04-01T20:02:57.449Z,89.21
2023-04-01T20:05:35.371Z,85.48
2023-04-01T20:08:09.905Z,89.98
2023-04-01T20:10:43.888Z,89.63
2023-04-01T20:13:23.627Z,94.09
2023-04-01T20:16:01.224Z,92.64
2023-04-01T20:18:36.707Z,91.91
2023-04-01T20:21:08.202Z,96.76
2023-04-01T20:23:42.140Z,95.03
2023-04-01T20:26:11.453Z,95.49
2023-04-01T20:28:51.061Z,94.94
2023-04-01T20:31:27.249Z,86.04
2023-04-01T20:34:25.598Z,95.42
2023-04-01T20:37:02.967Z,91.22
2023-04-01T20:40:02.518Z,94.89
2023-04-01T20:42:37.084Z,89.56
2023-04-01T20:45:24.623Z,94.23
2023-04-01T20:48:05.206Z,92.96
2023-04-01T20:50:37.270Z,91.12
2023-04-01T20:53:07.959Z,92.81
2023-04-01T20:55:49.767Z,87.37
2023-04-01T20:58:26.027Z,84.63
2023-04-01T21:01:02.857Z,93.27
2023-04-01T21:03:40.206Z,87.48
2023-04-01T21:06:46.804Z,93.18
2023-04-01T21:09:37.370Z,86.42
2023-04-01T21:12:17.379Z,86.94
2023-04-01T21:14:59.377Z,91.70
2023-04-01T21:17:37.698Z,89.62
2023-04-01T21:20:19.645Z,88.18
2023-04-01T21:22:56.568Z,88.11
2023-04-01T21:25:30.687Z,79.91
2023-04-01T21:28:10.034Z,80.70
2023-04-01T21:30:49.171Z,85.40
2023-04-01T21:33:46.806Z,78.23
2023-04-01T21:36:28.524Z,78.20
2023-04-01T21:39:04.683Z,81.13
2023-04-01T21:41:41.097Z,80.10
2023-04-01T21:44:43.634Z,81.64
2023-04-01T21:47:49.457Z,83.35
2023-04-01T21:51:00.554Z,86.79
2023-04-01T21:53:52.293Z,85.45
2023-04-01T21:57:02.159Z,85.20
2023-04-01T22:00:19.382Z,83.62
2023-04-01T22:03:23.963Z,86.65
2023-04-01T22:06:01.105Z,86.68
2023-04-01T22:08:48.823Z,87.45
2023-04-01T22:11:23.688Z,84.48
2023-04-01T22:13:53.314Z,88.45
2023-04-01T22:16:27.572Z,85.25
2023-04-01T22:19:02.645Z,86.60
2023-04-01T22:21:40.052Z,83.62
2023-04-01T22:24:12.361Z,89.25
2023-04-01T22:26:43.712Z,91.71
2023-04-01T22:29:18.069Z,94.62
2023-04-01T22:31:50.941Z,96.80
2023-04-01T22:34:22.086Z,93.33
2023-04-01T22:36:56.884Z,97.51
2023-04-01T22:39:46.614Z,98.18
2023-04-01T22:42:27.450Z,98.54
2023-04-01T22:45:04.357Z,100.00
2023-04-01T22:47:41.856Z,100.00
2023-04-01T22:50:16.162Z,95.86
2023-04-01T22:52:48.058Z,99.35
2023-04-01T22:55:19.578Z,97.30
2023-04-01T22:57:51.618Z,100.00
2023-04-01T23:00:23.481Z,100.00
2023-04-01T23:03:07.084Z,100.00
2023-04-01T23:05:37.243Z,100.00
2023-04-01T23:08:34.450Z,100.00
2023-04-01T23:11:05.360Z,100.00
2023-04-01T23:13:39.001Z,100.00
2023-04-01T23:16:08.193Z,100.00
2023-04-01T23:18:43.117Z,100.00
2023-04-01T23:21:14.768Z,100.00
2023-04-01T23:23:56.112Z,100.00
2023-04-01T23:26:28.114Z,100.00
2023-04-01T23:28:57.645Z,100.00
2023-04-01T23:31:32.013Z,100.00
2023-04-01T23:34:02.050Z,100.00
2023-04-01T23:36:32.172Z,100.00
2023-04-01T23:39:06.004Z,100.00
2023-04-01T23:41:34.837Z,100.00
2023-04-01T23:44:07.916Z,100.00
2023-04-01T23:46:37.227Z,100.00
2023-04-01T23:49:06.115Z,100.00
2023-04-01T23:51:40.511Z,100.00
2023-04-01T23:54:29.716Z,100.00
2023-04-01T23:56:58.786Z,100.00
2023-04-01T23:59:31.003Z,100.00
